createdAt,value
2018-07-20T00:00:12.773Z,2.30
2018-07-20T00:02:40.290Z,2.90
2018-07-20T00:05:07.930Z,2.37
2018-07-20T00:07:35.662Z,2.70
2018-07-20T00:10:05.817Z,2.43
2018-07-20T00:12:34.555Z,2.60
2018-07-20T00:15:02.524Z,2.40
2018-07-20T00:17:30.607Z,3.40
2018-07-20T00:19:58.527Z,2.53
2018-07-20T00:22:26.518Z,2.20
2018-07-20T00:24:54.500Z,2.20
2018-07-20T00:27:22.335Z,2.37
2018-07-20T00:29:49.985Z,2.87
2018-07-20T00:32:17.845Z,2.67
2018-07-20T00:34:45.558Z,2.63
2018-07-20T00:37:13.572Z,2.57
2018-07-20T00:39:41.435Z,2.20
2018-07-20T00:42:09.313Z,2.60
2018-07-20T00:44:37.651Z,2.57
2018-07-20T00:47:05.527Z,2.40
2018-07-20T00:49:33.342Z,2.50
2018-07-20T00:52:00.986Z,2.80
2018-07-20T00:54:29.130Z,2.87
2018-07-20T00:56:56.995Z,2.90
2018-07-20T00:59:25.998Z,2.70
2018-07-20T01:01:53.667Z,2.40
2018-07-20T01:04:22.246Z,2.80
2018-07-20T01:06:50.170Z,2.40
2018-07-20T01:09:18.772Z,2.47
2018-07-20T01:11:46.675Z,3.30
2018-07-20T01:14:14.390Z,2.87
2018-07-20T01:16:43.145Z,3.30
2018-07-20T01:19:10.912Z,2.93
2018-07-20T01:21:38.706Z,3.00
2018-07-20T01:24:06.573Z,2.80
2018-07-20T01:26:34.241Z,3.03
2018-07-20T01:29:03.301Z,2.13
2018-07-20T01:31:31.105Z,3.60
2018-07-20T01:33:58.903Z,3.17
2018-07-20T01:36:26.731Z,2.90
2018-07-20T01:38:55.870Z,3.40
2018-07-20T01:41:23.602Z,3.07
2018-07-20T01:43:51.994Z,3.00
2018-07-20T01:46:19.980Z,2.97
2018-07-20T01:48:48.551Z,3.40
2018-07-20T01:51:16.559Z,3.10
2018-07-20T01:53:44.505Z,3.27
2018-07-20T01:56:12.543Z,3.30
2018-07-20T01:58:40.465Z,3.73
2018-07-20T02:01:08.509Z,3.03
2018-07-20T02:03:36.401Z,3.70
2018-07-20T02:06:04.714Z,2.87
2018-07-20T02:08:32.733Z,4.00
2018-07-20T02:11:02.060Z,3.90
2018-07-20T02:13:30.825Z,3.50
2018-07-20T02:15:59.026Z,3.37
2018-07-20T02:18:27.022Z,3.70
2018-07-20T02:20:55.574Z,3.07
2018-07-20T02:23:23.938Z,3.30
2018-07-20T02:25:51.893Z,3.40
2018-07-20T02:28:19.794Z,3.70
2018-07-20T02:30:48.129Z,3.57
2018-07-20T02:33:16.084Z,3.77
2018-07-20T02:35:44.102Z,3.70
2018-07-20T02:38:12.111Z,3.63
2018-07-20T02:40:39.999Z,4.40
2018-07-20T02:43:08.021Z,3.90
2018-07-20T02:45:35.870Z,3.80
2018-07-20T02:48:03.680Z,4.27
2018-07-20T02:50:31.463Z,4.07
2018-07-20T02:52:59.289Z,4.50
2018-07-20T02:55:27.259Z,4.50
2018-07-20T02:57:55.745Z,4.70
2018-07-20T03:00:23.488Z,4.80
2018-07-20T03:02:51.517Z,4.60
2018-07-20T03:05:19.765Z,4.73
2018-07-20T03:07:48.058Z,4.20
2018-07-20T03:10:16.007Z,4.10
2018-07-20T03:12:44.250Z,4.70
2018-07-20T03:15:13.206Z,3.93
2018-07-20T03:17:41.115Z,3.87
2018-07-20T03:20:09.743Z,4.10
2018-07-20T03:22:38.299Z,4.40
2018-07-20T03:25:07.239Z,4.07
2018-07-20T03:27:35.122Z,4.70
2018-07-20T03:30:02.939Z,3.80
2018-07-20T03:32:30.586Z,5.03
2018-07-20T03:34:58.400Z,5.07
2018-07-20T03:37:27.138Z,4.47
2018-07-20T03:39:55.100Z,4.17
2018-07-20T03:42:22.930Z,4.20
2018-07-20T03:44:51.703Z,4.43
2018-07-20T03:47:19.639Z,4.00
2018-07-20T03:49:49.546Z,4.57
2018-07-20T03:52:17.472Z,4.70
2018-07-20T03:54:46.271Z,4.30
2018-07-20T03:57:14.081Z,4.43
2018-07-20T03:59:42.610Z,4.20
2018-07-20T04:02:10.547Z,4.53
2018-07-20T04:04:38.493Z,4.30
2018-07-20T04:07:06.389Z,4.27
2018-07-20T04:09:34.007Z,4.33
2018-07-20T04:12:02.443Z,4.67
2018-07-20T04:14:30.466Z,4.30
2018-07-20T04:16:58.471Z,4.83
2018-07-20T04:19:26.273Z,4.90
2018-07-20T04:21:54.290Z,4.20
2018-07-20T04:24:22.554Z,4.93
2018-07-20T04:26:50.393Z,4.60
2018-07-20T04:29:18.773Z,3.97
2018-07-20T04:31:47.043Z,3.80
2018-07-20T04:34:15.038Z,4.47
2018-07-20T04:36:44.001Z,4.63
2018-07-20T04:39:14.099Z,4.07
2018-07-20T04:41:42.222Z,3.53
2018-07-20T04:44:09.973Z,4.17
2018-07-20T04:46:38.702Z,3.97
2018-07-20T04:49:07.379Z,4.13
2018-07-20T04:51:34.911Z,4.23
2018-07-20T04:54:02.714Z,3.77
2018-07-20T04:56:30.302Z,3.47
2018-07-20T04:58:57.827Z,4.27
2018-07-20T05:01:25.848Z,3.83
2018-07-20T05:03:54.907Z,4.43
2018-07-20T05:06:22.603Z,4.13
2018-07-20T05:08:50.398Z,5.10
2018-07-20T05:11:19.021Z,4.30
2018-07-20T05:13:47.160Z,4.37
2018-07-20T05:16:16.611Z,4.23
2018-07-20T05:18:44.633Z,4.23
2018-07-20T05:21:12.467Z,4.40
2018-07-20T05:23:40.374Z,4.23
2018-07-20T05:26:08.731Z,4.20
2018-07-20T05:28:36.507Z,3.50
2018-07-20T05:31:04.255Z,4.20
2018-07-20T05:33:32.842Z,4.03
2018-07-20T05:36:01.451Z,3.70
2018-07-20T05:38:30.051Z,3.60
2018-07-20T05:40:58.539Z,3.80
2018-07-20T05:43:26.187Z,3.73
2018-07-20T05:45:54.562Z,3.60
2018-07-20T05:48:22.506Z,3.80
2018-07-20T05:50:50.465Z,3.80
2018-07-20T05:53:19.131Z,4.20
2018-07-20T05:55:47.122Z,2.97
2018-07-20T05:58:21.405Z,3.53
2018-07-20T06:00:50.141Z,3.00
2018-07-20T06:03:17.681Z,2.90
2018-07-20T06:05:45.275Z,3.40
2018-07-20T06:08:12.803Z,2.20
2018-07-20T06:10:40.365Z,2.33
2018-07-20T06:13:09.096Z,2.03
2018-07-20T06:15:37.670Z,2.00
2018-07-20T06:18:05.599Z,2.00
2018-07-20T06:20:35.141Z,1.87
2018-07-20T06:23:08.511Z,1.90
2018-07-20T06:25:36.482Z,1.77
2018-07-20T06:28:04.545Z,1.90
2018-07-20T06:30:33.500Z,1.70
2018-07-20T06:33:01.486Z,1.70
2018-07-20T06:35:29.355Z,1.60
2018-07-20T06:37:57.385Z,1.37
2018-07-20T06:40:25.259Z,1.27
2018-07-20T06:42:53.173Z,1.50
2018-07-20T06:45:22.579Z,1.30
2018-07-20T06:47:51.640Z,1.30
2018-07-20T06:50:20.028Z,1.50
2018-07-20T06:52:48.469Z,1.10
2018-07-20T06:55:16.267Z,1.60
2018-07-20T06:57:45.741Z,1.00
2018-07-20T07:00:13.766Z,1.30
2018-07-20T07:02:42.483Z,1.10
2018-07-20T07:05:10.990Z,1.00
2018-07-20T07:07:38.571Z,1.50
2018-07-20T07:10:06.673Z,1.57
2018-07-20T07:12:34.494Z,1.20
2018-07-20T07:15:04.226Z,1.50
2018-07-20T07:17:32.658Z,1.07
2018-07-20T07:20:01.225Z,0.90
2018-07-20T07:22:29.324Z,0.97
2018-07-20T07:24:58.147Z,1.20
2018-07-20T07:27:26.057Z,1.20
2018-07-20T07:29:54.423Z,1.37
2018-07-20T07:32:22.931Z,0.97
2018-07-20T07:34:50.561Z,1.00
2018-07-20T07:37:18.132Z,0.93
2018-07-20T07:39:45.662Z,1.20
2018-07-20T07:42:14.963Z,1.20
2018-07-20T07:44:42.745Z,1.30
2018-07-20T07:47:10.474Z,1.03
2018-07-20T07:49:38.371Z,1.23
2018-07-20T07:52:06.414Z,1.07
2018-07-20T07:54:35.000Z,1.30
2018-07-20T07:57:02.913Z,1.30
2018-07-20T07:59:30.613Z,1.00
2018-07-20T08:01:59.995Z,1.40
2018-07-20T08:04:28.382Z,1.10
2018-07-20T08:06:57.143Z,1.50
2018-07-20T08:09:25.077Z,1.00
2018-07-20T08:11:52.906Z,1.50
2018-07-20T08:14:20.744Z,1.20
2018-07-20T08:16:48.661Z,1.20
2018-07-20T08:19:17.250Z,1.30
2018-07-20T08:21:45.861Z,1.23
2018-07-20T08:24:14.755Z,1.20
2018-07-20T08:26:43.779Z,1.27
2018-07-20T08:29:11.541Z,1.43
2018-07-20T08:31:40.107Z,1.13
2018-07-20T08:34:08.038Z,1.20
2018-07-20T08:36:36.437Z,1.20
2018-07-20T08:39:06.132Z,1.20
2018-07-20T08:41:34.879Z,1.30
2018-07-20T08:44:02.783Z,1.20
2018-07-20T08:46:30.863Z,0.90
2018-07-20T08:48:59.943Z,1.40
2018-07-20T08:51:29.415Z,1.40
2018-07-20T08:53:58.652Z,1.13
2018-07-20T08:56:27.704Z,1.30
2018-07-20T08:58:56.299Z,1.20
2018-07-20T09:01:24.165Z,1.70
2018-07-20T09:03:53.083Z,1.60
2018-07-20T09:06:21.105Z,1.30
2018-07-20T09:08:49.510Z,1.17
2018-07-20T09:11:18.792Z,1.20
2018-07-20T09:13:48.041Z,1.60
2018-07-20T09:16:16.007Z,1.37
2018-07-20T09:18:44.618Z,1.60
2018-07-20T09:21:12.556Z,1.50
2018-07-20T09:23:41.195Z,1.77
2018-07-20T09:26:09.146Z,0.97
2018-07-20T09:28:37.498Z,1.10
2018-07-20T09:31:05.279Z,1.40
2018-07-20T09:33:33.123Z,1.57
2018-07-20T09:36:01.041Z,1.30
2018-07-20T09:38:28.850Z,1.43
2018-07-20T09:40:56.646Z,1.63
2018-07-20T09:43:25.299Z,1.20
2018-07-20T09:45:53.826Z,1.40
2018-07-20T09:48:21.826Z,1.80
2018-07-20T09:50:49.647Z,1.53
2018-07-20T09:53:17.523Z,1.50
2018-07-20T09:55:46.046Z,1.40
2018-07-20T09:58:14.026Z,1.40
2018-07-20T10:00:47.058Z,1.10
2018-07-20T10:03:14.891Z,1.27
2018-07-20T10:05:43.814Z,1.37
2018-07-20T10:08:11.619Z,1.57
2018-07-20T10:10:39.353Z,1.30
2018-07-20T10:13:07.342Z,1.50
2018-07-20T10:15:36.008Z,1.83
2018-07-20T10:18:03.922Z,1.30
2018-07-20T10:20:31.872Z,1.30
2018-07-20T10:22:59.870Z,1.83
2018-07-20T10:25:27.904Z,1.50
2018-07-20T10:27:55.683Z,2.00
2018-07-20T10:30:24.167Z,1.50
2018-07-20T10:32:52.101Z,1.70
2018-07-20T10:35:19.983Z,1.50
2018-07-20T10:37:48.952Z,1.97
2018-07-20T10:40:17.314Z,1.47
2018-07-20T10:42:45.817Z,1.77
2018-07-20T10:45:13.679Z,1.70
2018-07-20T10:47:42.503Z,1.20
2018-07-20T10:50:10.262Z,1.90
2018-07-20T10:52:38.134Z,2.07
2018-07-20T10:55:06.211Z,1.83
2018-07-20T10:57:33.998Z,2.00
2018-07-20T11:00:01.826Z,1.90
2018-07-20T11:02:30.614Z,1.80
2018-07-20T11:04:58.402Z,1.60
2018-07-20T11:07:28.350Z,1.70
2018-07-20T11:09:56.167Z,1.57
2018-07-20T11:12:23.992Z,1.90
2018-07-20T11:14:52.855Z,1.47
2018-07-20T11:17:20.844Z,1.70
2018-07-20T11:19:49.128Z,1.77
2018-07-20T11:22:17.019Z,1.70
2018-07-20T11:24:44.710Z,1.70
2018-07-20T11:27:12.781Z,1.60
2018-07-20T11:29:40.721Z,1.70
2018-07-20T11:32:08.682Z,1.70
2018-07-20T11:34:36.208Z,2.07
2018-07-20T11:37:04.034Z,2.07
2018-07-20T11:39:31.886Z,1.83
2018-07-20T11:42:00.351Z,1.73
2018-07-20T11:44:28.298Z,1.50
2018-07-20T11:46:56.249Z,2.47
2018-07-20T11:49:24.145Z,2.20
2018-07-20T11:51:52.163Z,2.17
2018-07-20T11:54:20.429Z,2.00
2018-07-20T11:56:49.055Z,2.00
2018-07-20T11:59:17.009Z,2.27
2018-07-20T12:01:44.944Z,2.50
2018-07-20T12:04:12.715Z,1.90
2018-07-20T12:06:40.498Z,1.97
2018-07-20T12:09:08.814Z,2.70
2018-07-20T12:11:36.551Z,1.97
2018-07-20T12:14:04.559Z,1.80
2018-07-20T12:16:32.565Z,2.40
2018-07-20T12:19:00.438Z,2.23
2018-07-20T12:21:28.371Z,1.80
2018-07-20T12:23:56.255Z,2.00
2018-07-20T12:26:24.162Z,1.97
2018-07-20T12:28:52.030Z,2.27
2018-07-20T12:31:20.788Z,1.90
2018-07-20T12:33:48.653Z,2.00
2018-07-20T12:36:16.651Z,2.07
2018-07-20T12:38:44.484Z,2.00
2018-07-20T12:41:13.063Z,2.10
2018-07-20T12:43:41.028Z,2.13
2018-07-20T12:46:08.926Z,2.37
2018-07-20T12:48:37.215Z,2.33
2018-07-20T12:51:05.653Z,2.30
2018-07-20T12:53:33.635Z,2.67
2018-07-20T12:56:01.359Z,2.63
2018-07-20T12:58:30.683Z,2.63
2018-07-20T13:00:59.384Z,2.40
2018-07-20T13:03:27.086Z,2.47
2018-07-20T13:05:54.885Z,2.20
2018-07-20T13:08:22.939Z,2.47
2018-07-20T13:10:52.086Z,2.50
2018-07-20T13:13:20.702Z,2.57
2018-07-20T13:15:48.643Z,2.33
2018-07-20T13:18:16.565Z,2.70
2018-07-20T13:20:45.224Z,2.67
2018-07-20T13:23:13.534Z,2.40
2018-07-20T13:25:42.683Z,2.50
2018-07-20T13:28:10.690Z,2.63
2018-07-20T13:30:38.554Z,2.63
2018-07-20T13:33:06.328Z,2.80
2018-07-20T13:35:34.157Z,3.40
2018-07-20T13:38:02.027Z,3.57
2018-07-20T13:40:30.551Z,3.60
2018-07-20T13:42:58.434Z,3.40
2018-07-20T13:45:27.571Z,3.80
2018-07-20T13:47:55.357Z,3.80
2018-07-20T13:50:23.678Z,3.50
2018-07-20T13:52:51.707Z,3.50
2018-07-20T13:55:19.764Z,3.27
2018-07-20T13:57:47.665Z,3.30
2018-07-20T14:00:16.543Z,3.40
2018-07-20T14:02:44.440Z,3.00
2018-07-20T14:05:12.527Z,3.03
2018-07-20T14:07:40.289Z,2.57
2018-07-20T14:10:09.021Z,3.07
2018-07-20T14:12:36.962Z,2.70
2018-07-20T14:15:04.799Z,3.00
2018-07-20T14:17:32.494Z,2.80
2018-07-20T14:20:00.442Z,4.13
2018-07-20T14:22:28.172Z,3.50
2018-07-20T14:24:55.969Z,3.47
2018-07-20T14:27:23.789Z,3.40
2018-07-20T14:29:51.897Z,3.20
2018-07-20T14:32:19.838Z,2.83
2018-07-20T14:34:47.866Z,3.77
2018-07-20T14:37:16.388Z,3.10
2018-07-20T14:39:45.816Z,3.50
2018-07-20T14:42:15.151Z,3.40
2018-07-20T14:44:43.081Z,3.10
2018-07-20T14:47:12.000Z,3.13
2018-07-20T14:49:39.954Z,2.87
2018-07-20T14:52:07.809Z,3.80
2018-07-20T14:54:35.618Z,3.60
2018-07-20T14:57:04.555Z,3.30
2018-07-20T14:59:33.363Z,2.90
2018-07-20T15:02:01.457Z,3.70
2018-07-20T15:04:29.271Z,4.23
2018-07-20T15:06:57.902Z,3.80
2018-07-20T15:09:26.316Z,3.37
2018-07-20T15:11:53.862Z,3.10
2018-07-20T15:14:22.497Z,3.60
2018-07-20T15:16:50.078Z,3.20
2018-07-20T15:19:18.271Z,3.50
2018-07-20T15:21:46.121Z,3.10
2018-07-20T15:24:15.373Z,3.37
2018-07-20T15:26:43.906Z,3.40
2018-07-20T15:29:12.587Z,2.83
2018-07-20T15:31:41.085Z,3.10
2018-07-20T15:34:09.642Z,3.03
2018-07-20T15:36:40.143Z,2.73
2018-07-20T15:39:08.435Z,3.40
2018-07-20T15:41:36.043Z,3.40
2018-07-20T15:44:03.791Z,2.80
2018-07-20T15:46:31.470Z,4.00
2018-07-20T15:48:59.026Z,3.40
2018-07-20T15:51:55.484Z,3.40
2018-07-20T15:53:54.561Z,3.50
2018-07-20T15:56:23.065Z,3.60
2018-07-20T15:58:51.437Z,4.10
2018-07-20T16:01:19.692Z,3.60
2018-07-20T16:03:47.741Z,3.87
2018-07-20T16:06:16.285Z,3.70
2018-07-20T16:08:44.789Z,3.57
2018-07-20T16:11:12.834Z,3.80
2018-07-20T16:13:40.686Z,3.90
2018-07-20T16:16:08.486Z,3.60
2018-07-20T16:18:36.093Z,3.30
2018-07-20T16:21:03.709Z,3.23
2018-07-20T16:23:31.337Z,4.00
2018-07-20T16:25:59.900Z,3.90
2018-07-20T16:28:28.335Z,4.53
2018-07-20T16:30:56.277Z,4.43
2018-07-20T16:33:25.767Z,4.10
2018-07-20T16:35:54.562Z,3.87
2018-07-20T16:38:22.267Z,4.20
2018-07-20T16:40:50.713Z,3.60
2018-07-20T16:43:19.262Z,4.10
2018-07-20T16:45:47.165Z,3.77
2018-07-20T16:48:15.239Z,4.27
2018-07-20T16:50:43.567Z,4.40
2018-07-20T16:53:11.481Z,4.00
2018-07-20T16:55:39.444Z,4.10
2018-07-20T16:58:08.358Z,3.80
2018-07-20T17:00:36.762Z,3.87
2018-07-20T17:03:04.619Z,3.90
2018-07-20T17:05:33.430Z,4.27
2018-07-20T17:08:02.666Z,4.10
2018-07-20T17:10:31.315Z,4.63
2018-07-20T17:12:59.770Z,3.60
2018-07-20T17:15:27.723Z,3.83
2018-07-20T17:17:55.718Z,3.43
2018-07-20T17:20:23.534Z,3.57
2018-07-20T17:22:52.314Z,3.83
2018-07-20T17:25:20.878Z,4.07
2018-07-20T17:27:49.236Z,4.17
2018-07-20T17:30:16.982Z,3.50
2018-07-20T17:32:44.821Z,3.80
2018-07-20T17:35:13.690Z,4.80
2018-07-20T17:37:42.304Z,4.10
2018-07-20T17:40:10.268Z,4.53
2018-07-20T17:42:38.279Z,4.03
2018-07-20T17:45:06.054Z,4.13
2018-07-20T17:47:34.716Z,4.23
2018-07-20T17:50:03.492Z,4.23
2018-07-20T17:52:31.370Z,3.80
2018-07-20T17:54:59.800Z,4.37
2018-07-20T17:57:28.258Z,4.93
2018-07-20T17:59:56.809Z,4.10
2018-07-20T18:02:24.884Z,4.50
2018-07-20T18:04:53.334Z,4.40
2018-07-20T18:07:21.357Z,4.43
2018-07-20T18:09:50.016Z,5.10
2018-07-20T18:12:18.503Z,5.00
2018-07-20T18:14:47.151Z,5.10
2018-07-20T18:17:15.104Z,4.30
2018-07-20T18:19:43.690Z,5.00
2018-07-20T18:22:11.523Z,4.40
2018-07-20T18:24:40.872Z,4.47
2018-07-20T18:27:09.849Z,5.00
2018-07-20T18:29:37.791Z,5.33
2018-07-20T18:32:06.950Z,5.43
2018-07-20T18:34:34.815Z,4.87
2018-07-20T18:37:03.102Z,5.50
2018-07-20T18:39:31.173Z,4.90
2018-07-20T18:42:00.113Z,5.40
2018-07-20T18:44:28.649Z,5.30
2018-07-20T18:46:56.777Z,4.70
2018-07-20T18:49:25.454Z,4.90
2018-07-20T18:51:53.320Z,5.17
2018-07-20T18:54:21.323Z,5.27
2018-07-20T18:56:49.439Z,5.77
2018-07-20T18:59:18.259Z,8.20
2018-07-20T19:01:46.119Z,5.60
2018-07-20T19:04:14.990Z,5.20
2018-07-20T19:06:43.308Z,5.80
2018-07-20T19:09:12.427Z,5.50
2018-07-20T19:11:40.607Z,8.20
2018-07-20T19:14:08.585Z,7.70
2018-07-20T19:16:36.447Z,5.47
2018-07-20T19:19:04.276Z,7.60
2018-07-20T19:21:31.955Z,7.07
2018-07-20T19:23:59.922Z,6.27
2018-07-20T19:26:28.675Z,6.13
2018-07-20T19:28:56.487Z,5.90
2018-07-20T19:31:24.038Z,4.97
2018-07-20T19:33:51.958Z,5.63
2018-07-20T19:36:20.546Z,6.13
2018-07-20T19:38:48.478Z,5.50
2018-07-20T19:41:16.495Z,5.33
2018-07-20T19:43:44.938Z,5.07
2018-07-20T19:46:12.568Z,6.07
2018-07-20T19:48:40.353Z,6.10
2018-07-20T19:51:07.924Z,4.77
2018-07-20T19:53:35.554Z,5.50
2018-07-20T19:56:03.195Z,5.40
2018-07-20T19:58:32.023Z,5.63
2018-07-20T20:01:00.925Z,6.23
2018-07-20T20:03:28.882Z,6.33
2018-07-20T20:05:56.924Z,5.77
2018-07-20T20:08:25.833Z,5.33
2018-07-20T20:10:53.761Z,5.10
2018-07-20T20:13:21.330Z,5.40
2018-07-20T20:15:48.991Z,5.50
2018-07-20T20:18:16.689Z,5.57
2018-07-20T20:20:44.347Z,6.80
2018-07-20T20:23:12.235Z,5.80
2018-07-20T20:25:40.111Z,5.50
2018-07-20T20:28:08.405Z,5.47
2018-07-20T20:30:37.097Z,5.97
2018-07-20T20:33:05.340Z,5.83
2018-07-20T20:35:33.394Z,6.07
2018-07-20T20:38:01.319Z,5.70
2018-07-20T20:40:30.061Z,5.77
2018-07-20T20:42:57.842Z,5.80
2018-07-20T20:45:26.585Z,6.23
2018-07-20T20:47:55.785Z,6.10
2018-07-20T20:50:25.178Z,5.80
2018-07-20T20:52:53.088Z,5.87
2018-07-20T20:55:20.842Z,5.20
2018-07-20T20:57:48.798Z,6.10
2018-07-20T21:00:16.957Z,6.40
2018-07-20T21:02:45.546Z,6.43
2018-07-20T21:05:13.534Z,6.13
2018-07-20T21:07:42.106Z,6.87
2018-07-20T21:10:11.175Z,6.27
2018-07-20T21:12:39.181Z,7.07
2018-07-20T21:15:07.141Z,6.10
2018-07-20T21:17:35.181Z,6.50
2018-07-20T21:20:03.426Z,7.40
2018-07-20T21:22:31.477Z,6.70
2018-07-20T21:25:01.211Z,7.10
2018-07-20T21:27:29.330Z,6.50
2018-07-20T21:29:57.281Z,7.47
2018-07-20T21:32:25.286Z,6.63
2018-07-20T21:34:53.714Z,7.80
2018-07-20T21:37:23.237Z,7.07
2018-07-20T21:39:51.954Z,9.30
2018-07-20T21:42:20.031Z,6.97
2018-07-20T21:44:48.869Z,7.47
2018-07-20T21:47:16.897Z,7.40
2018-07-20T21:49:44.859Z,7.30
2018-07-20T21:52:14.260Z,8.00
2018-07-20T21:54:43.029Z,7.13
2018-07-20T21:57:12.647Z,6.80
2018-07-20T21:59:40.429Z,8.57
2018-07-20T22:02:09.002Z,6.60
2018-07-20T22:04:37.190Z,7.50
2018-07-20T22:07:05.855Z,6.80
2018-07-20T22:09:33.839Z,7.63
2018-07-20T22:12:01.800Z,7.10
2018-07-20T22:14:30.437Z,7.27
2018-07-20T22:16:58.986Z,6.87
2018-07-20T22:19:27.137Z,7.20
2018-07-20T22:21:55.630Z,7.10
2018-07-20T22:24:24.182Z,7.30
2018-07-20T22:26:53.403Z,7.60
2018-07-20T22:29:22.191Z,7.50
2018-07-20T22:31:50.395Z,7.63
2018-07-20T22:34:18.926Z,7.70
2018-07-20T22:36:47.260Z,7.90
2018-07-20T22:39:15.846Z,6.87
2018-07-20T22:41:44.595Z,7.00
2018-07-20T22:44:13.186Z,6.90
2018-07-20T22:46:41.243Z,7.27
2018-07-20T22:49:09.778Z,7.63
2018-07-20T22:51:38.063Z,6.33
2018-07-20T22:54:06.576Z,6.07
2018-07-20T22:56:35.218Z,6.03
2018-07-20T22:59:03.337Z,6.90
2018-07-20T23:01:31.533Z,7.20
2018-07-20T23:04:00.337Z,6.70
2018-07-20T23:06:29.268Z,7.00
2018-07-20T23:08:57.092Z,7.27
2018-07-20T23:11:25.405Z,7.03
2018-07-20T23:13:53.386Z,6.70
2018-07-20T23:16:21.384Z,7.20
2018-07-20T23:18:49.338Z,7.10
2018-07-20T23:21:17.666Z,6.40
2018-07-20T23:23:47.314Z,7.10
2018-07-20T23:26:15.206Z,6.90
2018-07-20T23:28:44.467Z,7.17
2018-07-20T23:31:12.267Z,6.50
2018-07-20T23:33:41.489Z,7.27
2018-07-20T23:36:09.546Z,6.20
2018-07-20T23:38:37.812Z,7.67
2018-07-20T23:41:06.697Z,7.03
2018-07-20T23:43:34.892Z,7.90
2018-07-20T23:46:04.655Z,7.10
2018-07-20T23:48:33.134Z,7.40
2018-07-20T23:51:00.979Z,7.70
2018-07-20T23:53:30.495Z,6.87
2018-07-20T23:55:58.256Z,7.50
2018-07-20T23:58:26.241Z,8.37
